createdAt,value
2022-11-29T00:01:24.863Z,51.50
2022-11-29T00:03:52.023Z,46.08
2022-11-29T00:06:21.045Z,48.95
2022-11-29T00:08:48.053Z,40.63
2022-11-29T00:11:35.825Z,46.57
2022-11-29T00:14:02.826Z,46.83
2022-11-29T00:16:29.712Z,41.80
2022-11-29T00:18:56.604Z,43.80
2022-11-29T00:21:23.384Z,50.13
2022-11-29T00:23:50.162Z,45.73
2022-11-29T00:26:17.000Z,49.20
2022-11-29T00:28:43.782Z,59.50
2022-11-29T00:31:17.633Z,49.30
2022-11-29T00:33:44.665Z,44.25
2022-11-29T00:36:11.728Z,50.80
2022-11-29T00:38:38.580Z,47.22
2022-11-29T00:41:05.783Z,55.28
2022-11-29T00:43:32.606Z,46.70
2022-11-29T00:45:59.447Z,48.10
2022-11-29T00:48:26.263Z,52.17
2022-11-29T00:50:53.083Z,48.17
2022-11-29T00:53:20.106Z,57.03
2022-11-29T00:55:50.452Z,49.35
2022-11-29T00:58:17.395Z,50.35
2022-11-29T01:00:44.242Z,45.67
2022-11-29T01:03:11.072Z,53.47
2022-11-29T01:05:37.904Z,48.47
2022-11-29T01:08:04.925Z,50.10
2022-11-29T01:10:31.705Z,44.95
2022-11-29T01:12:58.504Z,46.97
2022-11-29T01:15:25.387Z,54.15
2022-11-29T01:17:53.523Z,44.80
2022-11-29T01:20:20.451Z,42.38
2022-11-29T01:22:47.259Z,41.75
2022-11-29T01:25:14.123Z,47.80
2022-11-29T01:27:41.028Z,44.28
2022-11-29T01:30:08.664Z,44.10
2022-11-29T01:32:36.069Z,44.10
2022-11-29T01:35:03.452Z,43.45
2022-11-29T01:37:30.247Z,39.40
2022-11-29T01:39:57.043Z,48.33
2022-11-29T01:42:23.900Z,44.90
2022-11-29T01:44:50.612Z,40.83
2022-11-29T01:47:18.166Z,41.13
2022-11-29T01:49:46.004Z,44.87
2022-11-29T01:52:32.373Z,43.05
2022-11-29T01:55:01.065Z,48.45
2022-11-29T01:57:28.084Z,41.13
2022-11-29T01:59:58.350Z,44.92
2022-11-29T02:02:42.551Z,53.37
2022-11-29T02:05:09.625Z,43.38
2022-11-29T02:07:36.565Z,41.55
2022-11-29T02:10:03.656Z,45.15
2022-11-29T02:12:35.320Z,44.22
2022-11-29T02:15:11.186Z,43.57
2022-11-29T02:18:02.767Z,38.63
2022-11-29T02:20:51.202Z,40.35
2022-11-29T02:23:30.189Z,39.83
2022-11-29T02:25:59.481Z,48.05
2022-11-29T02:28:44.658Z,43.67
2022-11-29T02:31:43.702Z,44.00
2022-11-29T02:34:39.989Z,41.95
2022-11-29T02:37:48.727Z,52.30
2022-11-29T02:40:33.992Z,45.25
2022-11-29T02:43:06.559Z,52.20
2022-11-29T02:45:55.077Z,50.28
2022-11-29T02:48:59.301Z,42.85
2022-11-29T02:51:48.503Z,47.83
2022-11-29T02:54:39.345Z,45.60
2022-11-29T02:57:14.824Z,42.13
2022-11-29T02:59:47.457Z,40.88
2022-11-29T03:02:21.711Z,47.65
2022-11-29T03:05:13.968Z,40.53
2022-11-29T03:07:56.095Z,46.30
2022-11-29T03:10:49.749Z,40.70
2022-11-29T03:13:58.773Z,43.72
2022-11-29T03:16:56.430Z,41.17
2022-11-29T03:19:47.044Z,43.15
2022-11-29T03:22:51.163Z,38.97
2022-11-29T03:25:21.174Z,33.97
2022-11-29T03:28:06.611Z,36.47
2022-11-29T03:30:34.756Z,36.00
2022-11-29T03:33:10.062Z,35.28
2022-11-29T03:36:09.624Z,38.85
2022-11-29T03:38:41.606Z,35.90
2022-11-29T03:41:13.383Z,40.70
2022-11-29T03:43:57.171Z,38.33
2022-11-29T03:47:02.474Z,35.03
2022-11-29T03:49:31.524Z,31.67
2022-11-29T03:52:18.971Z,31.73
2022-11-29T03:55:23.049Z,30.10
2022-11-29T03:58:02.215Z,30.52
2022-11-29T04:00:43.249Z,35.22
2022-11-29T04:03:41.042Z,37.15
2022-11-29T04:06:14.664Z,29.23
2022-11-29T04:09:08.769Z,37.13
2022-11-29T04:11:35.462Z,31.55
2022-11-29T04:14:14.372Z,30.00
2022-11-29T04:17:02.804Z,35.03
2022-11-29T04:19:46.659Z,33.83
2022-11-29T04:22:50.842Z,26.08
2022-11-29T04:25:39.228Z,31.92
2022-11-29T04:28:09.184Z,31.15
2022-11-29T04:30:43.521Z,29.83
2022-11-29T04:33:17.423Z,31.73
2022-11-29T04:36:13.012Z,34.08
2022-11-29T04:39:17.155Z,30.88
2022-11-29T04:41:52.885Z,30.33
2022-11-29T04:44:27.685Z,35.08
2022-11-29T04:47:33.089Z,31.43
2022-11-29T04:50:20.955Z,27.17
2022-11-29T04:53:09.484Z,27.42
2022-11-29T04:55:57.689Z,29.42
2022-11-29T04:58:33.140Z,36.72
2022-11-29T05:01:18.036Z,30.87
2022-11-29T05:04:03.383Z,32.67
2022-11-29T05:06:51.887Z,30.83
2022-11-29T05:09:56.647Z,28.90
2022-11-29T05:13:02.445Z,30.08
2022-11-29T05:15:53.934Z,30.33
2022-11-29T05:18:42.806Z,28.80
2022-11-29T05:21:11.426Z,29.92
2022-11-29T05:24:15.460Z,31.75
2022-11-29T05:26:49.529Z,34.50
2022-11-29T05:29:26.410Z,34.23
2022-11-29T05:32:19.651Z,29.73
2022-11-29T05:35:08.941Z,30.60
2022-11-29T05:38:15.102Z,30.40
2022-11-29T05:41:03.727Z,28.58
2022-11-29T05:44:02.188Z,30.87
2022-11-29T05:47:01.102Z,31.50
2022-11-29T05:49:41.463Z,30.98
2022-11-29T05:52:32.127Z,32.47
2022-11-29T05:55:19.929Z,29.08
2022-11-29T05:58:43.579Z,30.50
2022-11-29T06:01:21.424Z,32.47
2022-11-29T06:04:13.223Z,32.67
2022-11-29T06:06:52.502Z,28.73
2022-11-29T06:09:28.694Z,35.35
2022-11-29T06:11:57.763Z,32.07
2022-11-29T06:14:36.188Z,32.40
2022-11-29T06:17:34.335Z,29.98
2022-11-29T06:20:23.532Z,30.52
2022-11-29T06:22:50.566Z,32.00
2022-11-29T06:25:31.726Z,33.33
2022-11-29T06:27:59.166Z,33.60
2022-11-29T06:30:27.885Z,34.40
2022-11-29T06:33:01.306Z,35.80
2022-11-29T06:35:53.067Z,32.15
2022-11-29T06:38:27.865Z,30.20
2022-11-29T06:41:01.386Z,32.55
2022-11-29T06:43:29.063Z,32.47
2022-11-29T06:46:14.511Z,32.72
2022-11-29T06:48:49.848Z,35.55
2022-11-29T06:51:18.615Z,31.13
2022-11-29T06:54:04.635Z,35.08
2022-11-29T06:56:43.517Z,34.88
2022-11-29T06:59:41.358Z,32.75
2022-11-29T07:02:45.278Z,28.65
2022-11-29T07:05:26.007Z,31.17
2022-11-29T07:07:54.605Z,36.63
2022-11-29T07:10:21.943Z,32.47
2022-11-29T07:12:49.378Z,32.88
2022-11-29T07:15:18.410Z,31.83
2022-11-29T07:18:09.695Z,37.77
2022-11-29T07:20:55.196Z,30.08
2022-11-29T07:23:45.776Z,38.03
2022-11-29T07:26:27.158Z,34.03
2022-11-29T07:29:17.804Z,32.13
2022-11-29T07:31:47.549Z,34.00
2022-11-29T07:34:25.572Z,34.55
2022-11-29T07:36:58.618Z,32.42
2022-11-29T07:39:40.937Z,35.63
2022-11-29T07:42:20.196Z,33.08
2022-11-29T07:44:53.176Z,36.03
2022-11-29T07:47:19.934Z,34.28
2022-11-29T07:49:46.742Z,42.08
2022-11-29T07:52:13.986Z,34.17
2022-11-29T07:54:40.851Z,38.80
2022-11-29T07:57:07.649Z,39.57
2022-11-29T07:59:34.426Z,35.60
2022-11-29T08:02:01.270Z,34.35
2022-11-29T08:04:28.214Z,36.20
2022-11-29T08:06:54.976Z,37.22
2022-11-29T08:09:21.707Z,36.83
2022-11-29T08:11:48.905Z,38.35
2022-11-29T08:14:15.687Z,35.40
2022-11-29T08:16:42.459Z,37.42
2022-11-29T08:19:09.273Z,36.75
2022-11-29T08:21:36.021Z,34.47
2022-11-29T08:24:02.965Z,34.53
2022-11-29T08:26:31.775Z,30.98
2022-11-29T08:28:58.844Z,31.73
2022-11-29T08:31:25.677Z,40.75
2022-11-29T08:33:52.510Z,38.27
2022-11-29T08:36:19.978Z,40.90
2022-11-29T08:38:47.079Z,39.67
2022-11-29T08:41:15.132Z,37.08
2022-11-29T08:43:41.907Z,35.45
2022-11-29T08:46:11.462Z,36.87
2022-11-29T08:48:42.099Z,33.58
2022-11-29T08:51:09.020Z,38.40
2022-11-29T08:53:46.460Z,36.58
2022-11-29T08:59:05.677Z,40.30
2022-11-29T09:01:32.630Z,40.10
2022-11-29T09:03:59.555Z,36.90
2022-11-29T09:06:27.596Z,39.60
2022-11-29T09:08:56.380Z,40.58
2022-11-29T09:11:24.506Z,38.60
2022-11-29T09:13:53.282Z,42.20
2022-11-29T09:16:21.716Z,40.63
2022-11-29T09:18:56.067Z,35.53
2022-11-29T09:21:24.664Z,36.05
2022-11-29T09:23:58.101Z,38.23
2022-11-29T09:26:29.463Z,39.83
2022-11-29T09:28:58.002Z,40.97
2022-11-29T09:31:24.912Z,40.40
2022-11-29T09:33:51.986Z,37.30
2022-11-29T09:36:23.718Z,37.97
2022-11-29T09:38:53.548Z,39.55
2022-11-29T09:41:58.079Z,40.60
2022-11-29T09:44:45.696Z,39.42
2022-11-29T09:47:36.887Z,39.42
2022-11-29T09:50:36.747Z,44.23
2022-11-29T09:53:12.591Z,44.00
2022-11-29T09:55:57.726Z,39.00
2022-11-29T09:58:29.328Z,42.60
2022-11-29T10:01:08.105Z,39.03
2022-11-29T10:03:39.420Z,42.77
2022-11-29T10:06:27.923Z,43.00
2022-11-29T10:09:08.281Z,38.90
2022-11-29T10:12:10.605Z,40.38
2022-11-29T10:15:17.976Z,43.17
2022-11-29T10:17:45.481Z,39.50
2022-11-29T10:20:20.047Z,41.50
2022-11-29T10:23:05.661Z,45.38
2022-11-29T10:25:36.340Z,40.20
2022-11-29T10:28:04.438Z,44.50
2022-11-29T10:30:33.122Z,39.27
2022-11-29T10:33:00.414Z,42.97
2022-11-29T10:35:27.438Z,47.15
2022-11-29T10:38:22.740Z,46.78
2022-11-29T10:40:46.175Z,42.58
2022-11-29T10:43:13.031Z,41.60
2022-11-29T10:45:50.994Z,45.67
2022-11-29T10:48:36.827Z,46.90
2022-11-29T10:51:03.964Z,42.67
2022-11-29T10:53:37.164Z,46.20
2022-11-29T10:56:31.231Z,45.63
2022-11-29T10:59:09.445Z,41.30
2022-11-29T11:01:38.507Z,47.80
2022-11-29T11:04:07.489Z,43.58
2022-11-29T11:06:56.264Z,41.00
2022-11-29T11:09:32.740Z,44.77
2022-11-29T11:12:01.831Z,49.13
2022-11-29T11:14:30.963Z,45.13
2022-11-29T11:17:15.297Z,44.83
2022-11-29T11:19:42.177Z,47.20
2022-11-29T11:22:18.794Z,40.43
2022-11-29T11:24:45.814Z,43.78
2022-11-29T11:27:12.772Z,42.38
2022-11-29T11:29:43.919Z,45.17
2022-11-29T11:32:18.207Z,39.90
2022-11-29T11:34:53.020Z,46.00
2022-11-29T11:37:23.016Z,42.97
2022-11-29T11:39:51.662Z,42.70
2022-11-29T11:42:39.023Z,45.50
2022-11-29T11:45:35.469Z,46.50
2022-11-29T11:48:04.941Z,40.23
2022-11-29T11:50:34.383Z,42.35
2022-11-29T11:53:23.120Z,42.95
2022-11-29T11:55:58.889Z,39.55
2022-11-29T11:58:45.879Z,42.90
2022-11-29T12:01:12.637Z,40.63
2022-11-29T12:04:03.743Z,44.35
2022-11-29T12:06:52.731Z,44.65
2022-11-29T12:09:32.858Z,45.70
2022-11-29T12:12:21.271Z,39.97
2022-11-29T12:14:56.804Z,41.07
2022-11-29T12:17:38.687Z,38.58
2022-11-29T12:20:24.323Z,42.85
2022-11-29T12:22:54.146Z,42.80
2022-11-29T12:25:30.166Z,41.28
2022-11-29T12:27:57.029Z,45.40
2022-11-29T12:30:23.843Z,42.20
2022-11-29T12:32:55.160Z,42.53
2022-11-29T12:35:51.286Z,45.85
2022-11-29T12:38:46.124Z,40.72
2022-11-29T12:41:18.809Z,40.03
2022-11-29T12:44:07.871Z,43.83
2022-11-29T12:46:34.834Z,42.95
2022-11-29T12:49:16.800Z,40.72
2022-11-29T12:52:05.599Z,44.38
2022-11-29T12:54:32.345Z,44.93
2022-11-29T12:57:11.369Z,47.17
2022-11-29T12:59:59.188Z,45.33
2022-11-29T13:02:31.371Z,43.00
2022-11-29T13:05:14.219Z,44.53
2022-11-29T13:07:53.361Z,39.00
2022-11-29T13:10:41.629Z,45.28
2022-11-29T13:13:39.179Z,41.00
2022-11-29T13:16:29.269Z,44.35
2022-11-29T13:19:05.961Z,41.30
2022-11-29T13:21:55.942Z,44.37
2022-11-29T13:25:00.003Z,43.47
2022-11-29T13:27:46.170Z,42.92
2022-11-29T13:30:14.422Z,43.65
2022-11-29T13:32:47.866Z,45.22
2022-11-29T13:35:54.888Z,45.83
2022-11-29T13:38:41.167Z,43.25
2022-11-29T13:41:31.405Z,47.97
2022-11-29T13:44:18.786Z,46.38
2022-11-29T13:47:07.541Z,51.47
2022-11-29T13:49:57.400Z,46.77
2022-11-29T13:52:45.884Z,48.97
2022-11-29T13:55:12.673Z,49.75
2022-11-29T14:00:45.224Z,51.75
2022-11-29T14:03:26.165Z,49.23
2022-11-29T14:06:09.980Z,50.15
2022-11-29T14:09:02.499Z,46.50
2022-11-29T14:11:32.253Z,47.45
2022-11-29T14:14:28.947Z,52.10
2022-11-29T14:17:06.201Z,50.13
2022-11-29T14:19:36.941Z,48.65
2022-11-29T14:22:15.799Z,49.03
2022-11-29T14:24:42.952Z,48.15
2022-11-29T14:27:12.725Z,50.67
2022-11-29T14:29:51.096Z,44.97
2022-11-29T14:32:45.732Z,47.17
2022-11-29T14:35:13.070Z,47.85
2022-11-29T14:38:19.426Z,48.72
2022-11-29T14:41:16.028Z,48.50
2022-11-29T14:43:42.864Z,46.27
2022-11-29T14:46:15.794Z,52.55
2022-11-29T14:48:48.746Z,45.15
2022-11-29T14:51:19.628Z,46.33
2022-11-29T14:53:47.434Z,46.20
2022-11-29T14:56:34.866Z,45.13
2022-11-29T14:59:38.972Z,47.33
2022-11-29T15:02:27.549Z,48.72
2022-11-29T15:04:56.105Z,52.20
2022-11-29T15:07:29.862Z,48.00
2022-11-29T15:09:59.886Z,48.20
2022-11-29T15:12:29.502Z,47.67
2022-11-29T15:15:15.045Z,47.88
2022-11-29T15:17:44.559Z,47.75
2022-11-29T15:20:51.551Z,46.55
2022-11-29T15:23:18.916Z,47.87
2022-11-29T15:25:51.009Z,48.92
2022-11-29T15:28:37.982Z,50.78
2022-11-29T15:31:09.336Z,47.03
2022-11-29T15:33:43.066Z,47.67
2022-11-29T15:36:16.561Z,43.20
2022-11-29T15:38:53.669Z,45.78
2022-11-29T15:41:38.362Z,45.80
2022-11-29T15:44:06.461Z,45.78
2022-11-29T15:46:34.837Z,45.03
2022-11-29T15:49:23.993Z,46.80
2022-11-29T15:52:02.274Z,44.88
2022-11-29T15:54:30.415Z,44.05
2022-11-29T15:57:00.748Z,50.17
2022-11-29T15:59:40.135Z,47.40
2022-11-29T16:02:40.113Z,42.73
2022-11-29T16:05:22.917Z,42.78
2022-11-29T16:07:51.934Z,44.67
2022-11-29T16:10:20.929Z,44.22
2022-11-29T16:13:01.455Z,43.20
2022-11-29T16:15:29.539Z,43.40
2022-11-29T16:17:56.410Z,40.50
2022-11-29T16:20:24.528Z,46.65
2022-11-29T16:23:11.414Z,49.28
2022-11-29T16:25:54.048Z,42.22
2022-11-29T16:28:20.895Z,46.03
2022-11-29T16:30:47.678Z,49.20
2022-11-29T16:33:21.411Z,47.17
2022-11-29T16:35:48.368Z,41.83
2022-11-29T16:38:22.262Z,45.22
2022-11-29T16:41:08.317Z,43.03
2022-11-29T16:43:54.158Z,41.70
2022-11-29T16:46:20.980Z,41.83
2022-11-29T16:48:51.154Z,45.75
2022-11-29T16:51:35.924Z,47.70
2022-11-29T16:54:22.408Z,45.33
2022-11-29T16:56:50.484Z,42.15
2022-11-29T16:59:26.703Z,43.13
2022-11-29T17:01:55.127Z,45.00
2022-11-29T17:04:24.473Z,42.60
2022-11-29T17:06:55.207Z,45.37
2022-11-29T17:09:24.566Z,46.33
2022-11-29T17:11:51.543Z,47.63
2022-11-29T17:14:18.380Z,43.35
2022-11-29T17:16:47.779Z,45.25
2022-11-29T17:19:14.760Z,43.20
2022-11-29T17:21:41.552Z,42.67
2022-11-29T17:24:11.887Z,45.55
2022-11-29T17:26:38.728Z,45.72
2022-11-29T17:29:05.508Z,47.22
2022-11-29T17:31:32.604Z,42.17
2022-11-29T17:34:00.811Z,44.83
2022-11-29T17:36:27.729Z,40.28
2022-11-29T17:38:54.520Z,44.50
2022-11-29T17:41:23.234Z,39.35
2022-11-29T17:43:50.743Z,40.33
2022-11-29T17:46:26.074Z,39.05
2022-11-29T17:48:53.183Z,40.20
2022-11-29T17:51:50.767Z,45.75
2022-11-29T17:54:09.246Z,42.63
2022-11-29T17:56:36.044Z,48.47
2022-11-29T17:59:03.822Z,42.63
2022-11-29T18:01:32.383Z,46.38
2022-11-29T18:04:00.645Z,45.20
2022-11-29T18:06:34.192Z,46.67
2022-11-29T18:09:01.593Z,43.97
2022-11-29T18:11:44.946Z,45.30
2022-11-29T18:14:15.693Z,47.33
2022-11-29T18:16:42.837Z,43.40
2022-11-29T18:19:12.254Z,46.75
2022-11-29T18:21:39.240Z,45.60
2022-11-29T18:24:06.605Z,44.58
2022-11-29T18:26:34.188Z,46.85
2022-11-29T18:29:01.195Z,42.38
2022-11-29T18:31:33.154Z,46.05
2022-11-29T18:34:01.318Z,45.63
2022-11-29T18:36:32.642Z,42.75
2022-11-29T18:39:01.357Z,47.58
2022-11-29T18:41:29.262Z,42.25
2022-11-29T18:43:58.215Z,47.63
2022-11-29T18:46:25.686Z,46.30
2022-11-29T18:48:53.129Z,45.53
2022-11-29T18:51:20.244Z,44.00
2022-11-29T18:53:47.177Z,45.25
2022-11-29T18:56:19.181Z,48.10
2022-11-29T18:58:47.422Z,45.43
2022-11-29T19:01:15.895Z,47.33
2022-11-29T19:03:44.965Z,46.40
2022-11-29T19:06:17.056Z,46.28
2022-11-29T19:08:44.083Z,46.88
2022-11-29T19:11:15.173Z,49.23
2022-11-29T19:13:42.068Z,46.83
2022-11-29T19:16:13.043Z,48.25
2022-11-29T19:18:40.233Z,48.17
2022-11-29T19:21:07.764Z,42.90
2022-11-29T19:23:34.728Z,43.70
2022-11-29T19:26:03.321Z,47.58
2022-11-29T19:28:30.610Z,48.65
2022-11-29T19:30:57.620Z,47.85
2022-11-29T19:33:24.718Z,44.40
2022-11-29T19:35:51.661Z,46.67
2022-11-29T19:38:18.592Z,44.22
2022-11-29T19:40:45.554Z,48.72
2022-11-29T19:43:12.581Z,45.28
2022-11-29T19:45:40.512Z,48.42
2022-11-29T19:48:07.508Z,45.47
2022-11-29T19:50:34.364Z,43.45
2022-11-29T19:53:01.267Z,42.88
2022-11-29T19:55:28.175Z,43.40
2022-11-29T19:57:56.312Z,45.72
2022-11-29T20:00:23.245Z,46.73
2022-11-29T20:02:50.312Z,42.38
2022-11-29T20:05:17.362Z,45.55
2022-11-29T20:07:44.256Z,44.38
2022-11-29T20:10:11.693Z,52.38
2022-11-29T20:12:38.619Z,43.47
2022-11-29T20:15:06.228Z,48.50
2022-11-29T20:17:33.130Z,43.10
2022-11-29T20:20:00.057Z,44.40
2022-11-29T20:22:27.016Z,39.67
2022-11-29T20:24:55.021Z,41.03
2022-11-29T20:27:22.329Z,42.05
2022-11-29T20:29:49.299Z,44.60
2022-11-29T20:32:17.023Z,49.38
2022-11-29T20:34:44.239Z,42.95
2022-11-29T20:37:23.224Z,51.70
2022-11-29T20:40:11.101Z,43.47
2022-11-29T20:43:16.682Z,46.78
2022-11-29T20:45:43.900Z,42.60
2022-11-29T20:48:21.826Z,40.92
2022-11-29T20:51:00.441Z,41.83
2022-11-29T20:53:35.279Z,45.45
2022-11-29T20:56:02.738Z,42.22
2022-11-29T20:58:29.636Z,45.00
2022-11-29T21:00:56.937Z,48.80
2022-11-29T21:03:24.238Z,48.40
2022-11-29T21:05:51.709Z,48.80
2022-11-29T21:08:19.105Z,49.70
2022-11-29T21:10:45.991Z,48.28
2022-11-29T21:13:13.450Z,49.28
2022-11-29T21:15:40.759Z,53.17
2022-11-29T21:18:08.104Z,50.80
2022-11-29T21:20:35.170Z,53.70
2022-11-29T21:23:06.960Z,52.70
2022-11-29T21:25:57.537Z,54.10
2022-11-29T21:28:28.234Z,51.27
2022-11-29T21:30:55.351Z,46.75
2022-11-29T21:33:22.488Z,48.38
2022-11-29T21:35:52.615Z,50.50
2022-11-29T21:38:19.775Z,49.38
2022-11-29T21:40:46.732Z,47.60
2022-11-29T21:43:13.645Z,51.58
2022-11-29T21:45:40.570Z,49.03
2022-11-29T21:48:30.291Z,48.65
2022-11-29T21:50:57.173Z,47.35
2022-11-29T21:53:24.172Z,49.33
2022-11-29T21:55:57.045Z,48.13
2022-11-29T21:58:24.628Z,50.67
2022-11-29T22:00:51.917Z,45.17
2022-11-29T22:03:18.871Z,45.13
2022-11-29T22:05:46.956Z,45.27
2022-11-29T22:08:13.969Z,41.22
2022-11-29T22:10:40.896Z,48.90
2022-11-29T22:13:07.849Z,49.08
2022-11-29T22:15:34.762Z,41.25
2022-11-29T22:18:01.695Z,39.23
2022-11-29T22:20:28.593Z,44.95
2022-11-29T22:22:58.695Z,48.70
2022-11-29T22:25:25.877Z,43.85
2022-11-29T22:27:52.745Z,43.67
2022-11-29T22:30:19.710Z,46.93
2022-11-29T22:32:46.637Z,42.47
2022-11-29T22:35:13.569Z,40.55
2022-11-29T22:37:40.454Z,44.95
2022-11-29T22:40:07.774Z,42.67
2022-11-29T22:42:34.720Z,40.37
2022-11-29T22:45:03.926Z,44.83
2022-11-29T22:47:30.878Z,38.42
2022-11-29T22:49:57.809Z,41.20
2022-11-29T22:52:24.746Z,39.35
2022-11-29T22:54:51.644Z,37.50
2022-11-29T22:57:18.604Z,37.85
2022-11-29T22:59:45.452Z,38.65
2022-11-29T23:02:12.400Z,40.20
2022-11-29T23:04:39.307Z,42.83
2022-11-29T23:07:06.240Z,38.00
2022-11-29T23:09:33.124Z,40.70
2022-11-29T23:11:59.990Z,41.58
2022-11-29T23:14:26.851Z,41.75
2022-11-29T23:16:53.791Z,41.00
2022-11-29T23:19:20.769Z,39.53
2022-11-29T23:21:48.034Z,40.50
2022-11-29T23:24:15.398Z,38.72
2022-11-29T23:26:44.539Z,38.00
2022-11-29T23:29:13.588Z,43.47
2022-11-29T23:31:40.563Z,38.57
2022-11-29T23:34:07.790Z,37.95
2022-11-29T23:36:34.735Z,38.55
2022-11-29T23:39:01.591Z,35.80
2022-11-29T23:41:28.595Z,41.25
2022-11-29T23:43:55.491Z,34.80
2022-11-29T23:46:23.422Z,37.05
2022-11-29T23:48:50.470Z,38.88
2022-11-29T23:51:17.568Z,36.03
2022-11-29T23:53:44.528Z,39.70
2022-11-29T23:56:15.639Z,37.47
2022-11-29T23:58:42.912Z,35.72
